Time;durP1;ratioP1;P1;durP2;ratioP2;P2;SDS_P1;SDS_P2;PMS_P1;PMS_P2;Temp;Humidity;BMP_temperature;BMP_pressure;BME280_temperature;BME280_humidity;BME280_pressure;Samples;Min_cycle;Max_cycle;Signal;HPM_P1;HPM_P2
2024/01/20 00:01:16;;;;;;;25.50;17.27;;;;;;;3.44;50.91;98503.66;5050783;28;20250;-68
2024/01/20 00:03:41;;;;;;;26.63;17.80;;;;;;;3.59;50.82;98496.03;5051123;28;20624;-68
2024/01/20 00:06:07;;;;;;;23.80;16.43;;;;;;;3.65;50.54;98486.22;5042149;28;20214;-69
2024/01/20 00:08:32;;;;;;;24.50;16.27;;;;;;;3.42;50.28;98487.34;5043013;28;20235;-68
2024/01/20 00:10:58;;;;;;;23.60;15.40;;;;;;;3.34;50.67;98484.31;5054698;28;20531;-69
2024/01/20 00:13:23;;;;;;;25.33;15.87;;;;;;;3.57;50.42;98480.56;5059792;28;20261;-67
2024/01/20 00:15:49;;;;;;;23.43;15.97;;;;;;;3.71;50.12;98477.28;5056134;28;20735;-67
2024/01/20 00:18:14;;;;;;;24.93;16.30;;;;;;;3.75;49.19;98481.41;5054996;28;20233;-69
2024/01/20 00:20:40;;;;;;;26.60;17.70;;;;;;;3.84;49.70;98478.34;5049414;28;20175;-69
2024/01/20 00:23:05;;;;;;;27.03;17.23;;;;;;;3.79;50.13;98475.13;5043390;28;20680;-68
2024/01/20 00:25:32;;;;;;;22.83;16.40;;;;;;;3.83;49.96;98492.22;5058721;28;20264;-70
2024/01/20 00:27:57;;;;;;;25.20;16.20;;;;;;;3.79;50.03;98492.44;5049716;28;20198;-69
2024/01/20 00:30:22;;;;;;;23.50;16.20;;;;;;;3.69;49.78;98486.88;5049211;28;20516;-68
2024/01/20 00:32:48;;;;;;;25.10;15.90;;;;;;;3.49;50.11;98488.75;5048097;28;20295;-68
2024/01/20 00:35:13;;;;;;;28.57;18.17;;;;;;;3.32;51.06;98478.34;5049839;28;20219;-70
2024/01/20 00:37:39;;;;;;;29.03;17.80;;;;;;;3.23;51.16;98477.03;5045123;28;20271;-69
2024/01/20 00:40:05;;;;;;;26.90;17.57;;;;;;;3.14;51.66;98480.09;5045347;28;20193;-69
2024/01/20 00:42:31;;;;;;;27.97;18.67;;;;;;;3.15;51.67;98479.19;5048908;28;20891;-69
2024/01/20 00:44:56;;;;;;;31.60;19.20;;;;;;;3.31;51.76;98482.72;5049893;28;20510;-68
2024/01/20 00:47:22;;;;;;;30.47;17.83;;;;;;;3.37;51.09;98490.16;5043022;28;20187;-69
2024/01/20 00:49:47;;;;;;;26.67;16.10;;;;;;;3.37;50.82;98487.56;5044524;28;20214;-70
2024/01/20 00:52:14;;;;;;;33.03;18.43;;;;;;;3.46;51.20;98496.66;5046230;28;20202;-69
2024/01/20 00:54:39;;;;;;;26.43;17.63;;;;;;;3.33;50.90;98500.75;5048586;28;20178;-69
2024/01/20 00:57:05;;;;;;;30.50;18.50;;;;;;;3.33;50.94;98503.34;5058724;28;20420;-70
2024/01/20 00:59:30;;;;;;;30.73;20.50;;;;;;;3.36;50.93;98491.06;5049862;28;20270;-68
2024/01/20 01:01:56;;;;;;;29.60;18.67;;;;;;;3.45;50.33;98500.16;5052964;28;20194;-69
2024/01/20 01:04:21;;;;;;;28.90;18.80;;;;;;;3.36;50.61;98506.63;5056065;28;20280;-70
2024/01/20 01:06:48;;;;;;;30.50;19.03;;;;;;;3.18;51.55;98508.38;5057019;28;20183;-70
2024/01/20 01:09:14;;;;;;;29.90;17.60;;;;;;;3.10;50.74;98496.69;5043849;28;20203;-68
2024/01/20 01:11:40;;;;;;;29.30;18.50;;;;;;;2.92;51.88;98505.25;5056312;28;20905;-68
2024/01/20 01:14:05;;;;;;;29.37;19.30;;;;;;;2.86;52.07;98504.72;5049370;28;20200;-70
2024/01/20 01:16:30;;;;;;;33.43;20.03;;;;;;;2.92;52.73;98501.84;5039895;28;20619;-69
2024/01/20 01:18:56;;;;;;;35.30;19.20;;;;;;;2.80;53.42;98503.25;5055572;28;20548;-69
2024/01/20 01:21:22;;;;;;;31.97;20.63;;;;;;;2.89;52.85;98497.66;5041562;28;20198;-68
2024/01/20 01:23:47;;;;;;;31.37;19.90;;;;;;;2.90;52.61;98501.91;5042142;28;20208;-71
2024/01/20 01:26:13;;;;;;;31.57;20.60;;;;;;;2.89;52.41;98512.34;5049901;28;20179;-68
2024/01/20 01:28:38;;;;;;;33.47;20.23;;;;;;;2.72;53.33;98519.13;5045804;28;20191;-70
2024/01/20 01:31:04;;;;;;;31.63;18.70;;;;;;;2.85;52.51;98515.97;5053913;28;20246;-69
2024/01/20 01:33:29;;;;;;;29.00;18.93;;;;;;;2.69;52.52;98526.22;5048025;28;20285;-68
2024/01/20 01:35:54;;;;;;;26.43;16.73;;;;;;;2.44;53.29;98525.59;5045113;28;20240;-70
2024/01/20 01:38:20;;;;;;;28.73;18.00;;;;;;;2.43;53.28;98536.00;5057243;28;20233;-69
2024/01/20 01:40:45;;;;;;;27.77;18.27;;;;;;;2.66;53.56;98541.88;5050022;28;20205;-68
2024/01/20 01:43:11;;;;;;;30.30;19.77;;;;;;;2.55;53.37;98543.22;5053376;28;20298;-69
2024/01/20 01:45:36;;;;;;;38.13;18.93;;;;;;;2.39;53.24;98544.81;5046585;28;20178;-68
2024/01/20 01:48:02;;;;;;;30.70;19.47;;;;;;;2.37;53.88;98546.63;5049644;28;20223;-69
2024/01/20 01:50:27;;;;;;;34.77;19.90;;;;;;;2.39;53.79;98540.47;5047839;28;20211;-68
2024/01/20 01:52:56;;;;;;;36.70;19.83;;;;;;;2.33;53.87;98537.31;5057910;28;20237;-67
2024/01/20 01:55:23;;;;;;;35.40;19.90;;;;;;;2.45;53.30;98537.63;5044320;28;20206;-67
2024/01/20 01:57:52;;;;;;;34.20;20.57;;;;;;;2.43;53.57;98536.00;5038971;28;20456;-68
2024/01/20 02:00:17;;;;;;;33.23;20.40;;;;;;;2.44;53.94;98533.34;5044675;28;20470;-66
2024/01/20 02:02:43;;;;;;;31.70;19.07;;;;;;;2.42;54.27;98534.31;5044331;28;20474;-68
2024/01/20 02:05:09;;;;;;;40.30;20.27;;;;;;;2.36;53.39;98527.66;5040911;28;20187;-68
2024/01/20 02:07:35;;;;;;;34.27;20.97;;;;;;;2.41;53.95;98524.88;5048907;28;20187;-67
2024/01/20 02:10:00;;;;;;;32.30;19.33;;;;;;;2.13;54.45;98524.34;5048383;28;20417;-67
2024/01/20 02:12:26;;;;;;;29.17;18.23;;;;;;;1.93;54.64;98532.97;5048592;28;20488;-68
2024/01/20 02:14:52;;;;;;;27.10;17.57;;;;;;;1.73;55.11;98531.22;5041502;28;20187;-70
2024/01/20 02:17:17;;;;;;;32.13;17.47;;;;;;;1.58;54.94;98532.69;5049072;28;20195;-70
2024/01/20 02:19:43;;;;;;;29.27;17.37;;;;;;;1.81;54.71;98528.31;5044689;28;20175;-67
2024/01/20 02:22:13;;;;;;;29.37;18.07;;;;;;;1.84;54.79;98538.53;5045599;28;20206;-69
2024/01/20 02:24:39;;;;;;;30.43;18.00;;;;;;;1.89;54.75;98528.00;5051846;28;20511;-69
2024/01/20 02:27:05;;;;;;;26.83;16.80;;;;;;;2.07;54.91;98524.63;5048999;28;20448;-70
2024/01/20 02:29:31;;;;;;;33.40;17.93;;;;;;;2.10;54.32;98529.66;5056061;28;20460;-68
2024/01/20 02:31:56;;;;;;;30.70;18.30;;;;;;;2.05;54.58;98529.03;5046620;28;20409;-69
2024/01/20 02:34:22;;;;;;;24.50;16.23;;;;;;;2.21;54.18;98531.78;5038146;28;20183;-68
2024/01/20 02:36:47;;;;;;;27.50;18.23;;;;;;;2.27;54.23;98526.31;5048729;28;20194;-67
2024/01/20 02:39:13;;;;;;;31.33;18.53;;;;;;;2.18;53.48;98531.91;5049008;28;20278;-67
2024/01/20 02:41:38;;;;;;;28.63;17.90;;;;;;;2.07;54.36;98528.94;5050979;28;20679;-69
2024/01/20 02:44:08;;;;;;;31.13;17.63;;;;;;;2.01;54.52;98535.22;5041400;28;20202;-69
2024/01/20 02:46:34;;;;;;;30.17;18.50;;;;;;;2.02;54.34;98541.25;5049434;28;20209;-69
2024/01/20 02:48:59;;;;;;;31.67;19.33;;;;;;;1.96;54.59;98553.53;5049441;28;20485;-71
2024/01/20 02:51:25;;;;;;;31.67;19.17;;;;;;;1.55;54.78;98555.25;5058428;28;20260;-69
2024/01/20 02:53:50;;;;;;;33.40;20.13;;;;;;;1.65;55.70;98559.97;5053128;28;20276;-70
2024/01/20 02:56:15;;;;;;;31.70;19.63;;;;;;;1.75;54.52;98559.59;5048103;28;20268;-70
2024/01/20 02:58:41;;;;;;;36.87;19.40;;;;;;;1.97;54.66;98567.28;5046203;28;20302;-69
2024/01/20 03:01:07;;;;;;;36.43;19.80;;;;;;;1.88;54.22;98567.69;5058112;28;20191;-69
2024/01/20 03:03:32;;;;;;;36.87;20.50;;;;;;;2.05;54.75;98561.78;5041003;28;20456;-69
2024/01/20 03:05:58;;;;;;;34.93;19.63;;;;;;;2.08;54.54;98564.25;5054037;28;20213;-68
2024/01/20 03:08:23;;;;;;;33.00;18.97;;;;;;;2.14;53.97;98567.41;5048076;28;20213;-68
2024/01/20 03:10:49;;;;;;;29.57;19.13;;;;;;;2.20;53.21;98568.06;5061225;28;20178;-68
2024/01/20 03:13:14;;;;;;;30.97;19.77;;;;;;;2.24;53.85;98567.88;5057978;28;20295;-69
2024/01/20 03:15:40;;;;;;;30.90;18.40;;;;;;;2.26;53.71;98571.25;5050429;28;20194;-69
2024/01/20 03:18:05;;;;;;;28.97;18.80;;;;;;;2.30;52.90;98566.75;5054229;28;20254;-69
2024/01/20 03:20:30;;;;;;;28.33;18.10;;;;;;;2.27;52.78;98562.53;5055760;28;20253;-68
2024/01/20 03:22:56;;;;;;;27.30;17.67;;;;;;;2.09;53.73;98560.75;5051813;28;20203;-68
2024/01/20 03:25:21;;;;;;;33.73;18.63;;;;;;;1.85;53.62;98555.72;5012909;28;20628;-69
2024/01/20 03:27:47;;;;;;;30.83;17.50;;;;;;;2.11;53.91;98562.38;5037073;28;20263;-70
2024/01/20 03:30:12;;;;;;;31.53;17.80;;;;;;;2.25;54.20;98564.38;5050348;28;20683;-69
2024/01/20 03:32:38;;;;;;;28.83;17.77;;;;;;;2.13;53.55;98567.50;5042226;28;20222;-69
2024/01/20 03:35:04;;;;;;;27.67;18.07;;;;;;;2.25;53.52;98573.88;5045958;28;20207;-69
2024/01/20 03:37:29;;;;;;;28.90;18.43;;;;;;;2.30;53.54;98572.75;5040692;28;20187;-70
2024/01/20 03:39:56;;;;;;;28.17;17.67;;;;;;;2.07;53.24;98567.75;5052794;28;20435;-69
2024/01/20 03:42:22;;;;;;;25.77;16.73;;;;;;;1.98;53.59;98571.56;5055064;28;20199;-70
2024/01/20 03:44:48;;;;;;;25.20;16.17;;;;;;;2.16;53.58;98559.59;5038263;28;20435;-67
2024/01/20 03:47:13;;;;;;;26.00;16.67;;;;;;;1.98;53.08;98567.25;5048958;28;20431;-70
2024/01/20 03:49:39;;;;;;;29.50;18.27;;;;;;;2.05;53.06;98564.38;5048005;28;20207;-71
2024/01/20 03:52:04;;;;;;;28.70;18.00;;;;;;;2.10;53.17;98570.22;5039949;28;20222;-69
2024/01/20 03:54:30;;;;;;;27.87;17.47;;;;;;;2.08;53.10;98566.84;5046150;28;20183;-71
2024/01/20 03:56:55;;;;;;;30.00;16.90;;;;;;;2.13;53.96;98576.09;5045274;28;20187;-69
2024/01/20 03:59:21;;;;;;;31.10;18.33;;;;;;;2.27;53.92;98578.06;5047558;28;20266;-68
2024/01/20 04:01:46;;;;;;;29.37;17.33;;;;;;;2.27;53.25;98577.25;5035836;28;20531;-71
2024/01/20 04:04:12;;;;;;;26.23;17.00;;;;;;;2.27;53.70;98585.00;5038679;28;20238;-69
2024/01/20 04:06:37;;;;;;;33.07;17.90;;;;;;;2.37;52.37;98583.69;5045183;28;20191;-67
2024/01/20 04:09:03;;;;;;;25.97;15.90;;;;;;;2.42;52.87;98586.06;5044645;28;20839;-68
2024/01/20 04:11:29;;;;;;;25.50;16.57;;;;;;;2.29;53.23;98584.00;5052278;28;20195;-71
2024/01/20 04:13:54;;;;;;;29.20;17.47;;;;;;;2.36;52.83;98586.34;5041852;28;20530;-68
2024/01/20 04:16:20;;;;;;;29.90;18.50;;;;;;;2.41;52.81;98584.38;5047457;28;20203;-68
2024/01/20 04:18:45;;;;;;;27.20;16.73;;;;;;;2.21;53.20;98582.66;5044573;28;20207;-69
2024/01/20 04:21:11;;;;;;;26.70;16.90;;;;;;;2.45;53.11;98580.78;5051160;28;20214;-68
2024/01/20 04:23:36;;;;;;;28.77;16.97;;;;;;;2.39;52.07;98579.28;5046504;28;20726;-68
2024/01/20 04:26:02;;;;;;;24.60;16.10;;;;;;;2.25;52.44;98574.72;5049896;28;20561;-68
2024/01/20 04:28:27;;;;;;;29.70;16.70;;;;;;;2.18;52.72;98582.81;5045497;28;20207;-69
2024/01/20 04:30:53;;;;;;;32.67;16.93;;;;;;;2.28;52.86;98584.94;5058035;28;20258;-68
2024/01/20 04:33:18;;;;;;;26.30;16.77;;;;;;;2.40;52.41;98585.28;5045184;28;20207;-70
2024/01/20 04:35:50;;;;;;;33.47;18.70;;;;;;;2.43;52.22;98588.63;5044276;28;20232;-72
2024/01/20 04:38:15;;;;;;;23.23;15.87;;;;;;;2.46;52.35;98595.41;5053350;28;20447;-69
2024/01/20 04:40:41;;;;;;;27.53;17.30;;;;;;;2.44;52.19;98594.63;5054827;28;20417;-69
2024/01/20 04:43:06;;;;;;;25.17;16.20;;;;;;;2.42;51.60;98597.28;5048617;28;20203;-69
2024/01/20 04:45:32;;;;;;;27.20;17.30;;;;;;;2.44;52.05;98602.38;5040959;28;20789;-68
2024/01/20 04:47:57;;;;;;;28.17;17.80;;;;;;;2.28;52.36;98610.78;5039647;28;20203;-68
2024/01/20 04:50:23;;;;;;;27.10;17.20;;;;;;;2.11;52.68;98605.53;5051258;28;20213;-71
2024/01/20 04:52:48;;;;;;;23.00;15.60;;;;;;;1.94;52.79;98606.22;5054939;28;20235;-69
2024/01/20 04:55:14;;;;;;;25.60;16.07;;;;;;;1.85;53.02;98610.03;5058959;28;20822;-69
2024/01/20 04:57:39;;;;;;;33.07;18.10;;;;;;;1.73;53.93;98602.78;5049776;28;20547;-70
2024/01/20 05:00:06;;;;;;;27.73;17.53;;;;;;;1.66;54.14;98610.75;5040730;28;20183;-69
2024/01/20 05:02:31;;;;;;;30.73;16.90;;;;;;;1.71;54.34;98614.91;5042866;28;20664;-68
2024/01/20 05:04:57;;;;;;;29.97;18.67;;;;;;;1.88;54.32;98612.50;5050833;28;20415;-70
2024/01/20 05:07:22;;;;;;;27.53;18.00;;;;;;;1.99;53.51;98620.66;5046113;28;20225;-70
2024/01/20 05:09:47;;;;;;;32.47;17.83;;;;;;;2.10;53.08;98622.78;5054666;28;20203;-69
2024/01/20 05:12:13;;;;;;;30.57;17.93;;;;;;;2.19;52.81;98623.31;5057181;28;20234;-69
2024/01/20 05:14:38;;;;;;;31.17;18.13;;;;;;;2.25;52.51;98618.72;5049384;28;20208;-69
2024/01/20 05:17:04;;;;;;;25.90;17.00;;;;;;;2.22;52.51;98611.06;5046040;28;20200;-70
2024/01/20 05:19:29;;;;;;;30.67;18.27;;;;;;;2.08;52.98;98608.22;5039113;28;20272;-69
2024/01/20 05:21:55;;;;;;;29.70;18.10;;;;;;;1.98;53.07;98613.78;5048682;28;20207;-69
2024/01/20 05:24:20;;;;;;;29.33;18.10;;;;;;;1.90;53.10;98615.00;5049855;28;20211;-70
2024/01/20 05:26:46;;;;;;;29.70;18.93;;;;;;;1.92;53.21;98614.03;5050559;28;20245;-70
2024/01/20 05:29:11;;;;;;;33.03;19.00;;;;;;;2.03;53.57;98615.31;5053337;28;20234;-69
2024/01/20 05:31:37;;;;;;;30.00;18.33;;;;;;;2.14;53.01;98620.91;5052284;28;20183;-69
2024/01/20 05:34:02;;;;;;;31.20;19.80;;;;;;;2.06;53.15;98631.59;5047272;28;20203;-69
2024/01/20 05:36:28;;;;;;;32.53;18.07;;;;;;;2.09;53.63;98628.00;5039447;28;20252;-70
2024/01/20 05:38:53;;;;;;;29.73;18.67;;;;;;;2.11;52.85;98633.97;5053187;28;20599;-69
2024/01/20 05:41:19;;;;;;;41.83;19.93;;;;;;;2.05;53.02;98622.13;5055050;28;20271;-67
2024/01/20 05:43:44;;;;;;;25.50;17.50;;;;;;;2.02;53.21;98634.38;5056222;28;20207;-68
2024/01/20 05:46:10;;;;;;;26.87;17.40;;;;;;;1.91;52.89;98634.78;5045580;28;20214;-68
2024/01/20 05:48:35;;;;;;;30.93;17.63;;;;;;;1.79;54.02;98638.72;5038675;28;20285;-69
2024/01/20 05:51:01;;;;;;;31.60;18.07;;;;;;;1.87;53.88;98646.16;5032606;28;20194;-68
2024/01/20 05:53:26;;;;;;;28.43;17.33;;;;;;;1.78;53.46;98647.38;5042636;28;20205;-68
2024/01/20 05:55:51;;;;;;;33.80;18.10;;;;;;;1.84;53.10;98657.47;5037373;28;20204;-69
2024/01/20 05:58:17;;;;;;;29.10;18.50;;;;;;;1.87;53.43;98659.94;5038728;28;20270;-69
2024/01/20 06:00:42;;;;;;;30.20;18.67;;;;;;;1.87;53.37;98667.69;5032692;28;20233;-69
2024/01/20 06:03:08;;;;;;;29.73;17.90;;;;;;;1.97;52.94;98656.06;5033939;28;20290;-68
2024/01/20 06:05:33;;;;;;;32.53;18.70;;;;;;;1.87;52.83;98659.94;5038866;28;20193;-68
2024/01/20 06:07:59;;;;;;;31.30;18.23;;;;;;;1.96;53.19;98654.38;5033114;28;20754;-67
2024/01/20 06:10:24;;;;;;;32.10;19.17;;;;;;;1.82;53.22;98661.88;5055609;28;20186;-68
2024/01/20 06:12:50;;;;;;;26.87;17.77;;;;;;;1.84;52.77;98654.88;5048726;28;20195;-68
2024/01/20 06:15:15;;;;;;;28.40;18.20;;;;;;;1.86;53.39;98662.56;5054277;28;20727;-68
2024/01/20 06:17:41;;;;;;;33.87;19.77;;;;;;;1.85;53.70;98666.91;5049218;28;20186;-67
2024/01/20 06:20:06;;;;;;;30.53;19.47;;;;;;;1.78;53.31;98657.72;5045980;28;20198;-68
2024/01/20 06:22:32;;;;;;;30.27;18.60;;;;;;;1.78;53.71;98657.72;5052394;28;20207;-68
2024/01/20 06:24:57;;;;;;;34.00;18.77;;;;;;;1.54;53.75;98660.38;5044069;28;20180;-69
2024/01/20 06:27:23;;;;;;;25.60;17.17;;;;;;;1.31;54.31;98664.69;5046505;28;20245;-68
2024/01/20 06:29:48;;;;;;;27.73;18.37;;;;;;;1.15;54.61;98658.41;5047946;28;20216;-68
2024/01/20 06:32:14;;;;;;;29.07;17.83;;;;;;;1.10;55.14;98681.00;5042642;28;20299;-67
2024/01/20 06:34:39;;;;;;;28.43;17.90;;;;;;;1.09;55.31;98681.88;5044218;28;20211;-68
2024/01/20 06:37:05;;;;;;;32.13;18.80;;;;;;;1.19;55.05;98678.06;5032664;28;20183;-68
2024/01/20 06:39:30;;;;;;;33.70;17.97;;;;;;;1.09;55.32;98697.38;5049809;28;20194;-68
2024/01/20 06:41:56;;;;;;;32.57;19.80;;;;;;;0.99;55.25;98694.28;5037267;28;20274;-68
2024/01/20 06:44:22;;;;;;;31.10;18.90;;;;;;;1.05;54.71;98688.91;5037672;28;20195;-68
2024/01/20 06:46:48;;;;;;;29.00;18.30;;;;;;;1.15;54.88;98685.09;5034675;28;20180;-67
2024/01/20 06:49:14;;;;;;;32.37;17.10;;;;;;;1.27;54.50;98686.34;5061521;28;20200;-66
2024/01/20 06:51:45;;;;;;;27.80;18.00;;;;;;;1.35;55.40;98683.47;5055793;28;20421;-67
2024/01/20 06:54:10;;;;;;;34.00;18.13;;;;;;;1.45;54.20;98686.56;5040788;28;20441;-68
2024/01/20 06:56:36;;;;;;;29.83;18.80;;;;;;;1.40;54.05;98689.34;5047215;28;21037;-69
2024/01/20 06:59:02;;;;;;;32.07;18.60;;;;;;;1.22;54.14;98693.44;5038697;28;20601;-69
2024/01/20 07:01:28;;;;;;;31.70;19.33;;;;;;;1.19;55.06;98688.41;5036821;28;20195;-68
2024/01/20 07:03:54;;;;;;;31.13;18.33;;;;;;;1.14;54.88;98698.03;5037663;28;20472;-69
2024/01/20 07:06:25;;;;;;;26.50;18.67;;;;;;;1.12;55.20;98702.44;5047303;28;20785;-68
2024/01/20 07:08:51;;;;;;;32.53;20.53;;;;;;;1.29;55.25;98710.41;5043960;28;20202;-69
2024/01/20 07:11:17;;;;;;;43.00;18.90;;;;;;;1.36;54.67;98706.69;5037075;28;20418;-68
2024/01/20 07:13:42;;;;;;;34.33;19.60;;;;;;;1.30;54.52;98716.41;5059732;28;20525;-68
2024/01/20 07:16:11;;;;;;;34.07;18.83;;;;;;;1.22;54.52;98721.88;5044099;28;20194;-69
2024/01/20 07:18:37;;;;;;;29.43;17.43;;;;;;;1.09;54.67;98725.78;5046166;28;20210;-68
2024/01/20 07:21:03;;;;;;;32.00;18.97;;;;;;;1.12;54.80;98725.69;5037716;28;20413;-69
2024/01/20 07:23:29;;;;;;;34.13;18.00;;;;;;;1.04;54.97;98718.22;5037669;28;20438;-68
2024/01/20 07:25:55;;;;;;;30.80;18.90;;;;;;;0.89;55.16;98725.59;5047145;28;20451;-67
2024/01/20 07:28:21;;;;;;;32.03;18.30;;;;;;;0.88;55.69;98725.66;5042021;28;20553;-68
2024/01/20 07:30:46;;;;;;;28.47;18.07;;;;;;;0.94;55.87;98728.03;5043492;28;21154;-67
2024/01/20 07:33:12;;;;;;;33.83;20.57;;;;;;;1.17;55.41;98724.63;5031475;28;20227;-69
2024/01/20 07:35:37;;;;;;;33.53;20.37;;;;;;;1.13;54.47;98727.38;5054979;28;20186;-68
2024/01/20 07:38:03;;;;;;;33.07;18.67;;;;;;;1.28;54.22;98731.13;5043112;28;20171;-68
2024/01/20 07:40:29;;;;;;;41.00;19.90;;;;;;;1.29;54.29;98733.66;5036241;28;20338;-67
2024/01/20 07:42:54;;;;;;;33.83;20.23;;;;;;;1.40;54.50;98745.31;5044977;28;20473;-69
2024/01/20 07:45:20;;;;;;;31.93;18.77;;;;;;;1.44;54.02;98744.31;5041869;28;20240;-68
2024/01/20 07:47:46;;;;;;;32.17;19.40;;;;;;;1.53;54.30;98741.38;5045859;28;20191;-68
2024/01/20 07:50:12;;;;;;;31.40;19.10;;;;;;;1.60;53.60;98742.00;5035978;28;20183;-69
2024/01/20 07:52:38;;;;;;;33.17;19.57;;;;;;;1.53;54.09;98743.97;5034446;28;20449;-68
2024/01/20 07:55:04;;;;;;;30.67;19.10;;;;;;;1.69;54.15;98745.06;5044980;28;20183;-67
2024/01/20 07:57:30;;;;;;;33.03;19.87;;;;;;;1.81;53.80;98745.50;5044306;28;20807;-67
2024/01/20 07:59:55;;;;;;;33.33;20.90;;;;;;;1.80;54.14;98754.16;5048398;28;20424;-68
2024/01/20 08:02:21;;;;;;;32.60;18.73;;;;;;;1.66;53.87;98760.69;5039044;28;20206;-67
2024/01/20 08:04:46;;;;;;;37.80;19.70;;;;;;;1.45;54.43;98764.91;5044955;28;20194;-68
2024/01/20 08:07:12;;;;;;;33.47;19.80;;;;;;;1.45;54.45;98769.25;5047949;28;20178;-70
2024/01/20 08:09:37;;;;;;;33.70;19.70;;;;;;;1.57;53.72;98771.38;5045060;28;20296;-69
2024/01/20 08:12:03;;;;;;;34.40;19.80;;;;;;;1.58;53.96;98764.47;5043643;28;20191;-68
2024/01/20 08:14:29;;;;;;;29.43;17.90;;;;;;;1.48;54.21;98771.75;5045999;28;20188;-69
2024/01/20 08:16:54;;;;;;;31.50;18.50;;;;;;;1.60;54.06;98773.00;5048190;28;20199;-69
2024/01/20 08:19:20;;;;;;;32.40;18.23;;;;;;;1.62;53.61;98777.25;5059527;28;20203;-68
2024/01/20 08:21:45;;;;;;;30.50;19.50;;;;;;;1.22;53.81;98778.69;5062416;28;20179;-69
2024/01/20 08:24:10;;;;;;;40.83;23.50;;;;;;;1.18;54.32;98779.69;5054614;28;20684;-68
2024/01/20 08:26:36;;;;;;;34.50;20.33;;;;;;;1.23;53.95;98770.88;5040862;28;20180;-68
2024/01/20 08:29:01;;;;;;;31.00;18.17;;;;;;;1.20;54.60;98770.97;5060058;28;20227;-67
2024/01/20 08:31:27;;;;;;;29.10;17.83;;;;;;;1.13;54.57;98771.28;5060960;28;20179;-69
2024/01/20 08:33:53;;;;;;;33.23;20.00;;;;;;;1.09;53.95;98770.53;5042370;28;20225;-70
2024/01/20 08:36:19;;;;;;;31.77;20.10;;;;;;;1.16;54.56;98768.56;5046442;28;20187;-68
2024/01/20 08:38:44;;;;;;;34.10;19.27;;;;;;;1.05;55.05;98771.56;5050082;28;20416;-67
2024/01/20 08:41:10;;;;;;;32.47;20.10;;;;;;;1.07;55.02;98782.69;5043964;28;20215;-69
2024/01/20 08:43:39;;;;;;;32.97;20.27;;;;;;;1.07;54.79;98780.94;5044174;28;20203;-69
2024/01/20 08:46:05;;;;;;;33.47;18.80;;;;;;;0.79;54.85;98788.78;5041709;28;20236;-69
2024/01/20 08:48:30;;;;;;;34.60;19.60;;;;;;;0.69;55.21;98785.66;5047600;28;20879;-69
2024/01/20 08:50:56;;;;;;;32.23;19.40;;;;;;;0.83;55.52;98787.78;5049185;28;20187;-69
2024/01/20 08:53:21;;;;;;;37.10;20.83;;;;;;;0.99;55.53;98790.69;5049617;28;20226;-69
2024/01/20 08:55:46;;;;;;;35.47;20.47;;;;;;;1.12;54.97;98798.84;5045040;28;20195;-70
2024/01/20 08:58:12;;;;;;;36.27;20.13;;;;;;;1.16;54.43;98794.41;5050925;28;20183;-70
2024/01/20 09:00:37;;;;;;;38.30;21.00;;;;;;;1.13;55.18;98804.88;5050371;28;20773;-68
2024/01/20 09:03:06;;;;;;;39.17;20.67;;;;;;;1.07;54.99;98811.91;5053284;28;20675;-70
2024/01/20 09:05:31;;;;;;;34.73;19.13;;;;;;;1.03;54.64;98809.50;5058483;28;20182;-69
2024/01/20 09:07:57;;;;;;;35.00;19.70;;;;;;;1.01;55.16;98816.44;5041027;28;20490;-68
2024/01/20 09:10:22;;;;;;;33.40;19.77;;;;;;;1.10;54.71;98820.47;5058928;28;20211;-68
2024/01/20 09:12:48;;;;;;;34.50;18.87;;;;;;;1.17;54.72;98827.94;5054884;28;20258;-69
2024/01/20 09:15:13;;;;;;;32.40;19.50;;;;;;;1.13;54.48;98825.53;5041081;28;20187;-68
2024/01/20 09:17:39;;;;;;;35.77;21.17;;;;;;;1.31;54.56;98826.63;5048809;28;20542;-67
2024/01/20 09:20:06;;;;;;;33.73;20.40;;;;;;;1.34;54.26;98832.50;5055995;28;20175;-69
2024/01/20 09:22:31;;;;;;;42.13;21.83;;;;;;;1.37;53.99;98840.16;5046944;28;20211;-69
2024/01/20 09:24:58;;;;;;;31.87;18.73;;;;;;;1.48;53.81;98838.94;5036172;28;20421;-69
2024/01/20 09:27:24;;;;;;;31.27;19.30;;;;;;;1.77;53.14;98842.19;5048295;28;20212;-69
2024/01/20 09:29:50;;;;;;;32.70;18.53;;;;;;;2.18;52.98;98837.19;5053082;28;20448;-68
2024/01/20 09:32:15;;;;;;;31.80;18.10;;;;;;;1.81;52.80;98844.63;5044870;28;20805;-68
2024/01/20 09:34:40;;;;;;;31.57;19.93;;;;;;;1.94;53.35;98845.00;5042856;28;20676;-67
2024/01/20 09:37:07;;;;;;;33.00;21.00;;;;;;;2.08;52.21;98836.69;5044355;28;20274;-70
2024/01/20 09:39:32;;;;;;;39.50;21.27;;;;;;;2.27;52.78;98833.41;5052592;28;20261;-68
2024/01/20 09:41:58;;;;;;;34.90;20.13;;;;;;;2.42;51.23;98837.97;5049437;28;20418;-69
2024/01/20 09:44:24;;;;;;;32.40;20.20;;;;;;;2.36;51.55;98845.97;5048513;28;20206;-67
2024/01/20 09:46:49;;;;;;;31.40;19.43;;;;;;;2.27;51.58;98847.16;5046192;28;20425;-68
2024/01/20 09:49:15;;;;;;;33.40;18.90;;;;;;;2.42;52.24;98852.66;5034250;28;20505;-69
2024/01/20 09:51:51;;;;;;;36.63;20.07;;;;;;;2.90;51.08;98848.97;5043051;28;20286;-69
2024/01/20 09:54:18;;;;;;;34.13;20.90;;;;;;;3.22;49.81;98856.31;5030185;28;20206;-69
2024/01/20 09:56:44;;;;;;;35.70;20.13;;;;;;;3.21;49.01;98852.88;5047636;28;20434;-68
2024/01/20 09:59:09;;;;;;;31.27;19.83;;;;;;;3.61;49.28;98858.06;5041214;28;20418;-68
2024/01/20 10:01:36;;;;;;;32.43;18.90;;;;;;;4.01;47.90;98865.84;5026651;28;20328;-69
2024/01/20 10:04:04;;;;;;;30.33;18.90;;;;;;;4.51;47.46;98859.16;5031961;28;20206;-69
2024/01/20 10:06:29;;;;;;;31.70;20.50;;;;;;;5.00;45.69;98855.06;5045390;28;20419;-69
2024/01/20 10:08:54;;;;;;;32.77;20.93;;;;;;;5.16;44.14;98861.19;5051177;28;20557;-69
2024/01/20 10:11:20;;;;;;;38.23;23.10;;;;;;;5.44;44.65;98853.75;5041372;28;20198;-68
2024/01/20 10:13:45;;;;;;;36.73;21.97;;;;;;;5.98;43.38;98845.72;5049484;28;20264;-69
2024/01/20 10:16:11;;;;;;;31.90;21.93;;;;;;;6.42;43.26;98845.06;5015187;28;20314;-68
2024/01/20 10:18:36;;;;;;;38.10;22.23;;;;;;;6.82;41.89;98854.97;5039876;28;20241;-68
2024/01/20 10:21:03;;;;;;;32.50;22.17;;;;;;;7.08;41.51;98839.59;5029736;28;20179;-70
2024/01/20 10:23:29;;;;;;;36.17;22.10;;;;;;;7.16;41.19;98840.00;5032912;28;20207;-69
2024/01/20 10:26:04;;;;;;;32.83;20.87;;;;;;;7.42;39.28;98837.59;5047092;28;20414;-69
2024/01/20 10:28:30;;;;;;;29.60;19.40;;;;;;;7.63;39.49;98848.47;5037369;28;20217;-69
2024/01/20 10:30:56;;;;;;;32.77;20.57;;;;;;;7.94;39.09;98849.22;5044378;28;20418;-70
2024/01/20 10:33:22;;;;;;;33.27;21.53;;;;;;;7.93;39.77;98851.94;5037888;28;20274;-69
2024/01/20 10:35:49;;;;;;;36.17;21.60;;;;;;;8.03;38.93;98858.25;5043311;28;20171;-68
2024/01/20 10:38:19;;;;;;;32.47;19.97;;;;;;;8.24;38.10;98857.84;5048607;28;20510;-71
2024/01/20 10:40:45;;;;;;;34.30;21.47;;;;;;;8.26;38.26;98854.19;5045625;28;20430;-69
2024/01/20 10:43:14;;;;;;;32.10;20.70;;;;;;;8.53;37.73;98845.53;5042305;28;20507;-68
2024/01/20 10:45:46;;;;;;;30.07;20.07;;;;;;;8.53;37.94;98852.56;5043550;28;20426;-69
2024/01/20 10:48:20;;;;;;;31.60;19.93;;;;;;;8.80;37.45;98846.47;5037243;28;20480;-69
2024/01/20 10:50:52;;;;;;;32.70;20.10;;;;;;;8.79;37.49;98836.97;5053609;28;20508;-70
2024/01/20 10:53:18;;;;;;;26.27;19.13;;;;;;;8.81;36.94;98837.69;5052648;28;21020;-70
2024/01/20 10:55:45;;;;;;;28.40;19.30;;;;;;;9.10;36.67;98833.13;5053824;28;20433;-71
2024/01/20 10:58:12;;;;;;;30.60;19.43;;;;;;;9.25;35.82;98833.88;5057227;28;20862;-69
2024/01/20 11:00:38;;;;;;;27.50;19.73;;;;;;;9.45;36.03;98834.31;5049313;28;20418;-69
2024/01/20 11:03:05;;;;;;;29.53;20.50;;;;;;;9.81;35.94;98827.47;5042656;28;20473;-71
2024/01/20 11:05:32;;;;;;;26.90;18.93;;;;;;;9.68;35.58;98817.84;5047307;28;20193;-69
2024/01/20 11:08:00;;;;;;;28.80;20.17;;;;;;;9.99;35.56;98820.91;5050227;28;20428;-70
2024/01/20 11:10:26;;;;;;;26.80;19.93;;;;;;;9.99;34.99;98820.09;5046103;28;20432;-71
2024/01/20 11:13:04;;;;;;;29.63;20.00;;;;;;;10.07;34.75;98816.91;5056450;28;20491;-69
2024/01/20 11:15:30;;;;;;;25.77;19.60;;;;;;;10.42;34.69;98821.44;5048399;28;20218;-69
2024/01/20 11:17:55;;;;;;;27.07;19.37;;;;;;;10.68;33.77;98816.06;5041352;28;20480;-69